Tiempo atmosférico en la estación meteorológica de Barbate, Cádiz (4 m.)



Fecha
DESCASC
Temp. máxima en grados centígrados (hora)
DESCASC
Temp. mínima en grados centígrados (hora)
DESCASC
Temp. media en grados centígrados
DESCASC
Racha de viento máxima en m/sg (hora)
DESCASC
Velocidad máxima media en intervalos de 10 minutos(hora)
DESCASC
Precipitaciones diarias en mm
DESCASC
Precipitaciones de 00:00 a 06:00 en mm
DESCASC
Precipitaciones de 06:00 a 12:00 en mm
DESCASC
Precipitaciones de 12:00 a 18:00 en mm
DESCASC
Precipitaciones de 18:00 a 24:00 en mm
DESCASC
18-08-2019 26.5 (16:30) 20.4 (05:00) 23.4 8.06 (10:10) 6.67 (07:30) 0 0 0 0 0
17-08-2019 31.1 (17:50) 20.8 (07:10) 25.9 8.33 (16:20) 6.11 (16:20) 0 0 0 0 0
16-08-2019 32.9 (17:10) 20.9 (08:20) 26.9 8.61 (15:50) 6.39 (15:50) 0 0 0 0 0
15-08-2019 29.9 (17:50) 21.8 (00:00) 25.8 8.06 (19:20) 5.83 (03:40) 0 0 0 0 0
14-08-2019 33.6 (16:50) 23.7 (00:00) 28.6 15.28 (12:50) 8.61 (12:40) 0 0 0 0 0
13-08-2019 27.2 (17:20) 15.9 (00:00) 21.6 7.22 (23:59) 6.11 (12:50) 0 0 0 0 0
12-08-2019 31 (14:00) 18.2 (00:00) 24.6 12.22 (18:20) 8.89 (18:20) 0 0 0 0 0
11-08-2019 30.3 (17:10) 19.9 (00:00) 25.1 11.67 (21:20) 8.06 (17:20) 0 0 0 0 0
10-08-2019 28.5 (17:50) 20.3 (00:00) 24.4 10.56 (14:40) 8.89 (15:50) 0 0 0 0 0
09-08-2019 27 (18:30) 20.6 (00:00) 23.8 10 (15:40) 8.61 (15:40) 0 0 0 0 0
08-08-2019 32.4 (17:30) 19.3 (00:00) 25.9 9.44 (15:10) 7.78 (15:00) 0 0 0 0 0
07-08-2019 31.8 (18:20) 20.5 (00:00) 26.1 8.89 (17:10) 6.94 (15:40) 0 0 0 0 0
06-08-2019 27.2 (19:10) 19.3 (00:00) 23.3 9.72 (17:30) 8.33 (17:30) 0 0 0 0 0
05-08-2019 29.1 (19:20) 20.4 (00:00) 24.8 8.33 (17:30) 6.94 (17:30) 0 0 0 0 0
04-08-2019 24.4 (20:50) 20.4 (00:00) 22.4 8.89 (15:50) 7.22 (15:50) 0 0 0 0 0
03-08-2019 25.2 (17:50) 19.1 (00:00) 22.2 7.22 (16:20) 6.11 (16:00) 0 0 0 0 0
02-08-2019 30.2 (19:00) 21.1 (00:00) 25.7 7.22 (15:50) 6.11 (15:50) 0 0 0 0 0
01-08-2019 29.4 (11:30) 24 (00:00) 26.7 10.56 (15:50) 8.06 (15:50) 0 0 0 0 0
31-07-2019 31.2 (17:20) 21.8 (00:00) 26.5 14.72 (17:00) 9.17 (17:00) 0 0 0 0 0
30-07-2019 33.7 (18:10) 17.7 (00:00) 25.7 10 (19:10) 7.5 (14:40) 0 0 0 0 0
29-07-2019 28.9 (19:10) 18.9 (00:00) 23.9 8.61 (16:30) 7.22 (16:40) 0 0 0 0 0
28-07-2019 23.6 (17:20) 20.2 (00:00) 21.9 8.61 (16:20) 7.5 (16:20) 0 0 0 0 0
27-07-2019 23.5 (11:50) 19.8 (00:00) 21.6 12.22 (16:30) 9.72 (16:40) 0 0 0 0 0
26-07-2019 26.7 (16:00) 21.5 (00:00) 24.1 10.28 (17:50) 8.61 (17:50) 0 0 0 0 0
25-07-2019 26.5 (16:50) 21.6 (00:00) 24.1 9.72 (19:50) 7.78 (19:50) 0 0 0 0 0
24-07-2019 28.7 (18:50) 21.5 (00:00) 25.1 8.33 (13:20) 6.11 (19:30) 0 0 0 0 0
23-07-2019 29.4 (15:10) 22.9 (00:00) 26.1 11.94 (16:40) 9.44 (16:30) 0 0 0 0 0
22-07-2019 32.6 (15:20) 25.7 (00:00) 29.1 16.94 (13:20) 10.28 (12:40) 0 0 0 0 0

Gráficas

Temp. máximas Temp. mínimas Temp. medias Precipitaciones Rachas de viento máximas Velocidades máximas media en intervalos de 10 minutos

Datos horarios

Fecha y hora oficial Temperatura (ºC) Velocidad del viento (km/h) Dirección del viento Racha (km/h) Dirección de racha Precipitación (mm) Presión (hPa) Tendencia (hPa) Humedad (%)
2019-08-20 23:00:00 22.3 5 Norte 9 Norte 0 -- -- 68
2019-08-20 22:00:00 23.7 4 Norte 14 Noroeste 0 -- -- 60
2019-08-20 21:00:00 25.8 9 Norte 13 Noroeste 0 -- -- 53
2019-08-20 20:00:00 28.4 9 Noroeste 14 Noroeste 0 -- -- 44
2019-08-20 19:00:00 28.5 7 Oeste 24 Oeste 0 -- -- 45
2019-08-20 18:00:00 24.1 21 Oeste 30 Oeste 0 -- -- 78
2019-08-20 17:00:00 24.1 25 Oeste 30 Oeste 0 -- -- 77
2019-08-20 16:00:00 24.3 24 Sudoeste 29 Sudoeste 0 -- -- 76
2019-08-20 15:00:00 24.4 21 Sudoeste 24 Sudoeste 0 -- -- 76
2019-08-20 14:00:00 24.2 18 Sudoeste 20 Sudoeste 0 -- -- 73
2019-08-20 13:00:00 24.4 12 Sudoeste 17 Sudoeste 0 -- -- 77
2019-08-20 12:00:00 24 14 Sudoeste 20 Sudoeste 0 -- -- 80
2019-08-20 11:00:00 23 18 Sudoeste 22 Sudoeste 0 -- -- 87
2019-08-20 10:00:00 22 16 Sudoeste 21 Sudoeste 0 -- -- 94
2019-08-20 09:00:00 21 17 Sudoeste 26 Sur 0 -- -- 99
2019-08-20 08:00:00 20.6 22 Sudoeste 28 Sudoeste 0 -- -- 100
2019-08-20 07:00:00 20.6 22 Sur 27 Sur 0 -- -- 100
2019-08-20 06:00:00 21 20 Sur 22 Sur 0 -- -- 99
2019-08-20 05:00:00 21.2 15 Sur 20 Sur 0 -- -- 99
2019-08-20 04:00:00 21.4 15 Sur 17 Sur 0 -- -- 97
2019-08-20 03:00:00 21.4 14 Sudoeste 19 Sudoeste 0 -- -- 96
2019-08-20 02:00:00 21.4 16 Sur 18 Sur 0 -- -- 97
2019-08-20 01:00:00 21.3 10 Sur 12 Sur 0 -- -- 95
2019-08-20 00:00:00 21.8 8 Sudoeste 10 Sudoeste 0 -- -- 93
2019-08-19 23:00:00 22.2 2 Sudoeste 7 Noroeste 0 -- -- 87
2019-08-19 22:00:00 23 6 Noroeste 14 Noroeste 0 -- -- 83
2019-08-19 21:00:00 25 13 Noroeste 21 Noroeste 0 -- -- 72
2019-08-19 20:00:00 27.5 11 Noroeste 23 Oeste 0 -- -- 58
2019-08-19 19:00:00 24.3 20 Oeste 27 Oeste 0 -- -- 81
2019-08-19 18:00:00 25.1 23 Oeste 28 Oeste 0 -- -- 79
2019-08-19 17:00:00 24.9 23 Oeste 27 Oeste 0 -- -- 84
2019-08-19 16:00:00 25.7 18 Sudoeste 21 Sudoeste 0 -- -- 81
2019-08-19 15:00:00 25.1 15 Sudoeste 21 Sudoeste 0 -- -- 84
2019-08-19 14:00:00 24.1 18 Sudoeste 22 Sur 0 -- -- 86
2019-08-19 13:00:00 23.4 18 Sudoeste 27 Sudoeste 0 -- -- 90
2019-08-19 12:00:00 22.4 23 Sur 28 Sur 0 -- -- 93
2019-08-19 11:00:00 22.1 21 Sur 25 Sur 0 -- -- 95
2019-08-19 10:00:00 21.7 20 Sudoeste 25 Sur 0 -- -- 98
2019-08-19 09:00:00 21.4 19 Sur 23 Sudoeste 0 -- -- 100
2019-08-19 08:00:00 21.3 16 Sudoeste 24 Sudoeste 0 -- -- 100
2019-08-19 07:00:00 21.1 19 Sudoeste 24 Sudoeste 0 -- -- 100
2019-08-19 06:00:00 21.1 21 Sudoeste 27 Sudoeste 0 -- -- 100
2019-08-19 05:00:00 21.1 23 Sudoeste 27 Sudoeste 0 -- -- 100
2019-08-19 04:00:00 21.4 21 Sudoeste 24 Sudoeste 0 -- -- 100
2019-08-19 03:00:00 21.7 14 Sudoeste 18 Sur 0 -- -- 99
2019-08-19 02:00:00 21.6 10 Sur 14 Sur 0 -- -- 98
2019-08-19 01:00:00 21.7 10 Sur 13 Sur 0 -- -- 97
2019-08-19 00:00:00 21.6 4 Sur 6 Sur 0 -- -- 94
2019-08-18 23:00:00 22.3 4 Oeste 10 Sudoeste 0 -- -- 92
2019-08-18 22:00:00 23.1 8 Oeste 13 Oeste 0 -- -- 89
2019-08-18 21:00:00 24.5 10 Oeste 18 Oeste 0 -- -- 82
2019-08-18 20:00:00 24.3 16 Oeste 27 Oeste 0 -- -- 83
2019-08-18 19:00:00 25.5 15 Sudoeste 20 Sudoeste 0 -- -- 80
2019-08-18 18:00:00 26.4 13 Sudoeste 16 Sudoeste 0 -- -- 77
2019-08-18 17:00:00 26.5 14 Sudoeste 18 Sudoeste 0 -- -- 76
2019-08-18 16:00:00 26.2 14 Sudoeste 21 Sudoeste 0 -- -- 79
2019-08-18 15:00:00 26.1 14 Sudoeste 21 Sudoeste 0 -- -- 79
2019-08-18 14:00:00 25.5 18 Sudoeste 23 Sudoeste 0 -- -- 83
2019-08-18 13:00:00 24.8 17 Sudoeste 23 Sudoeste 0 -- -- 86
2019-08-18 12:00:00 22.7 17 Sudoeste 26 Sudoeste 0 -- -- 97
2019-08-18 11:00:00 21.6 22 Sudoeste 29 Sudoeste 0 -- -- 100
2019-08-18 10:00:00 21.2 24 Sudoeste 28 Sudoeste 0 -- -- 100
2019-08-18 09:00:00 20.8 22 Sudoeste 26 Sudoeste 0 -- -- 100
2019-08-18 08:00:00 21.1 22 Sudoeste 28 Sur 0 -- -- 98
2019-08-18 07:00:00 21.5 22 Sur 27 Sur 0 -- -- 95
2019-08-18 06:00:00 21.7 17 Sudoeste 21 Sudoeste 0 -- -- 92
2019-08-18 05:00:00 20.4 4 Nordeste 9 Nordeste 0 -- -- 78
2019-08-18 04:00:00 22.2 4 Oeste 8 Oeste 0 -- -- 82
2019-08-18 03:00:00 22.4 3 Noroeste 11 Oeste 0 -- -- 84
2019-08-18 02:00:00 22.4 9 Oeste 13 Oeste 0 -- -- 83
2019-08-18 01:00:00 23.3 10 Oeste 12 Norte 0 -- -- 85
2019-08-18 00:00:00 24.7 9 Norte 14 Norte 0 -- -- 56
2019-08-17 23:00:00 24.7 5 Sudeste 16 Norte 0 -- -- 75
2019-08-17 22:00:00 27.7 8 Norte 14 Noroeste 0 -- -- 45
2019-08-17 21:00:00 28.2 6 Oeste 23 Oeste 0 -- -- 57
2019-08-17 20:00:00 27.8 14 Oeste 25 Oeste 0 -- -- 68
2019-08-17 19:00:00 30.8 13 Oeste 19 Oeste 0 -- -- 54
2019-08-17 18:00:00 31.1 12 Sur 24 Sur 0 -- -- 53
2019-08-17 17:00:00 29.8 20 Sur 30 Sur 0 -- -- 59
2019-08-17 16:00:00 30 18 Sur 24 Sur 0 -- -- 62
2019-08-17 15:00:00 27.6 14 Oeste 17 Oeste 0 -- -- 73
2019-08-17 14:00:00 28.5 12 Sudoeste 20 Sur 0 -- -- 70
2019-08-17 13:00:00 28.2 15 Sur 20 Sur 0 -- -- 74
2019-08-17 12:00:00 28.1 8 Sudoeste 12 Sudoeste 0 -- -- 74
2019-08-17 11:00:00 25.9 9 Sudoeste 12 Sudoeste 0 -- -- 74
2019-08-17 10:00:00 24.8 8 Sur 10 Sur 0 -- -- 79
2019-08-17 09:00:00 22.8 5 Norte 13 Norte 0 -- -- 80
2019-08-17 08:00:00 21.2 3 Norte 8 Noroeste 0 -- -- 81
2019-08-17 07:00:00 20.9 2 Sur 6 Noroeste 0 -- -- 81
2019-08-17 06:00:00 21.6 6 Oeste 10 Oeste 0 -- -- 89
2019-08-17 05:00:00 22.2 9 Oeste 11 Oeste 0 -- -- 91
2019-08-17 04:00:00 23 8 Norte 15 Norte 0 -- -- 60
2019-08-17 03:00:00 23.7 10 Norte 15 Norte 0 -- -- 64
2019-08-17 02:00:00 24.4 9 Norte 18 Norte 0 -- -- 55
2019-08-17 01:00:00 24.1 7 Norte 16 Norte 0 -- -- 60
2019-08-17 00:00:00 24.7 9 Norte 13 Norte 0 -- -- 59
2019-08-16 23:00:00 25.1 7 Norte 11 Norte 0 -- -- 62
2019-08-16 22:00:00 24.8 3 Nordeste 17 Oeste 0 -- -- 78
2019-08-16 21:00:00 25.7 14 Oeste 22 Oeste 0 -- -- 72
2019-08-16 20:00:00 26.3 19 Oeste 22 Oeste 0 -- -- 73
2019-08-16 19:00:00 28.1 10 Oeste 16 Oeste 0 -- -- 67
2019-08-16 18:00:00 29.6 10 Oeste 20 Este 0 -- -- 60
2019-08-16 17:00:00 31.2 13 Sur 27 Sur 0 -- -- 43
2019-08-16 16:00:00 29.4 20 Sur 31 Sur 0 -- -- 58
2019-08-16 15:00:00 28.9 20 Sur 30 Sur 0 -- -- 68
2019-08-16 14:00:00 29.4 8 Sudoeste 15 Sur 0 -- -- 69
2019-08-16 13:00:00 28 10 Sur 17 Sur 0 -- -- 74
2019-08-16 12:00:00 26.1 10 Sudoeste 17 Oeste 0 -- -- 79
2019-08-16 11:00:00 24.7 11 Oeste 15 Oeste 0 -- -- 81
2019-08-16 10:00:00 23.9 10 Oeste 12 Oeste 0 -- -- 80
2019-08-16 09:00:00 22.4 5 Oeste 12 Norte 0 -- -- 77
2019-08-16 08:00:00 21.4 6 Norte 10 Oeste 0 -- -- 74
2019-08-16 07:00:00 21.8 6 Oeste 10 Oeste 0 -- -- 87
2019-08-16 06:00:00 22 8 Oeste 13 Oeste 0 -- -- 82
2019-08-16 05:00:00 22.4 6 Nordeste 13 Norte 0 -- -- 70
2019-08-16 04:00:00 23.2 9 Oeste 12 Oeste 0 -- -- 72
2019-08-16 03:00:00 24.5 7 Oeste 21 Nordeste 0 -- -- 71
2019-08-16 02:00:00 25 15 Nordeste 22 Nordeste 0 -- -- 60
2019-08-16 01:00:00 23.5 2 Noroeste 13 Oeste 0 -- -- 80
2019-08-16 00:00:00 24.7 8 Oeste 12 Sudoeste 0 -- -- 79
2019-08-15 23:00:00 26.6 6 Este 23 Este 0 -- -- 57
2019-08-15 22:00:00 26.8 13 Nordeste 18 Nordeste 0 -- -- 54
2019-08-15 21:00:00 28 4 Norte 19 Sudoeste 0 -- -- 69
2019-08-15 20:00:00 26.9 13 Oeste 29 Oeste 0 -- -- 76
2019-08-15 19:00:00 27.3 20 Oeste 27 Oeste 0 -- -- 71
2019-08-15 18:00:00 28.6 13 Oeste 22 Sur 0 -- -- 68
2019-08-15 17:00:00 29.3 12 Sur 21 Sur 0 -- -- 67
2019-08-15 16:00:00 29 12 Sur 24 Sur 0 -- -- 68
2019-08-15 15:00:00 28.1 17 Sur 22 Sur 0 -- -- 72
2019-08-15 14:00:00 28.7 14 Sur 21 Sur 0 -- -- 70
2019-08-15 13:00:00 27.9 14 Sur 20 Sur 0 -- -- 73
2019-08-15 12:00:00 27.5 9 Sur 17 Sur 0 -- -- 75
2019-08-15 11:00:00 26.4 10 Sudoeste 18 Nordeste 0 -- -- 78
2019-08-15 10:00:00 26.5 14 Nordeste 19 Nordeste 0 -- -- 73
2019-08-15 09:00:00 23.5 7 Nordeste 14 Nordeste 0 -- -- 87
2019-08-15 08:00:00 22 10 Nordeste 19 Nordeste 0 -- -- 88
2019-08-15 07:00:00 22.4 9 Nordeste 17 Nordeste 0 -- -- 86
2019-08-15 06:00:00 22.5 10 Este 15 Nordeste 0 -- -- 88
2019-08-15 05:00:00 22.8 12 Nordeste 20 Nordeste 0 -- -- 89
2019-08-15 04:00:00 23.2 18 Nordeste 27 Nordeste 0 -- -- 87
2019-08-15 03:00:00 23.6 18 Nordeste 27 Este 0 -- -- 85
2019-08-15 02:00:00 23.5 7 Norte 14 Norte 0 -- -- 84
2019-08-15 01:00:00 23.9 4 Norte 12 Norte 0 -- -- 83
2019-08-15 00:00:00 23.7 6 Oeste 14 Nordeste 0 -- -- 86
2019-08-14 23:00:00 25.4 14 Nordeste 19 Nordeste 0 -- -- 77
2019-08-14 22:00:00 26.2 18 Nordeste 24 Nordeste 0 -- -- 72
2019-08-14 21:00:00 28.3 22 Nordeste 30 Nordeste 0 -- -- 64
2019-08-14 20:00:00 31.1 20 Nordeste 29 Nordeste 0 -- -- 52
2019-08-14 19:00:00 32.4 19 Este 37 Este 0 -- -- 52
2019-08-14 18:00:00 33.2 23 Este 39 Sudeste 0 -- -- 50
2019-08-14 17:00:00 33.2 24 Este 40 Este 0 -- -- 50
2019-08-14 16:00:00 33.2 23 Este 40 Este 0 -- -- 53
2019-08-14 15:00:00 32.9 23 Este 43 Este 0 -- -- 52
2019-08-14 14:00:00 32.1 27 Este 46 Este 0 -- -- 55
2019-08-14 13:00:00 30.8 31 Este 55 Este 0 -- -- 61
2019-08-14 12:00:00 29.5 28 Este 46 Este 0 -- -- 67
2019-08-14 11:00:00 28.9 23 Este 38 Este 0 -- -- 70
2019-08-14 10:00:00 27.9 13 Este 30 Este 0 -- -- 72
2019-08-14 09:00:00 25.9 15 Este 47 Este 0 -- -- 79
2019-08-14 08:00:00 25.3 31 Este 47 Este 0 -- -- 80
2019-08-14 07:00:00 24.8 22 Este 46 Sudeste 0 -- -- 83
2019-08-14 06:00:00 24.7 19 Este 39 Este 0 -- -- 85
2019-08-14 05:00:00 24.8 23 Este 33 Sudeste 0 -- -- 86
2019-08-14 04:00:00 24.5 19 Este 31 Este 0 -- -- 87
2019-08-14 03:00:00 24.3 13 Este 24 Este 0 -- -- 88
2019-08-14 02:00:00 24.2 13 Este 22 Nordeste 0 -- -- 89
2019-08-14 01:00:00 24.7 16 Nordeste 24 Nordeste 0 -- -- 87
2019-08-14 00:00:00 25.3 19 Nordeste 26 Nordeste 0 -- -- 83
2019-08-13 23:00:00 24.8 12 Este 20 Este 0 -- -- 82
2019-08-13 22:00:00 24.6 3 Oeste 13 Oeste 0 -- -- 71
2019-08-13 21:00:00 25.1 11 Oeste 21 Oeste 0 -- -- 71
2019-08-13 20:00:00 25.8 16 Oeste 24 Oeste 0 -- -- 74
2019-08-13 19:00:00 26.5 19 Oeste 24 Oeste 0 -- -- 73
2019-08-13 18:00:00 27 18 Oeste 21 Oeste 0 -- -- 70
2019-08-13 17:00:00 26.9 18 Oeste 21 Oeste 0 -- -- 65
2019-08-13 16:00:00 26.6 16 Oeste 21 Oeste 0 -- -- 65
2019-08-13 15:00:00 24.9 17 Oeste 23 Oeste 0 -- -- 71
2019-08-13 14:00:00 24.4 19 Oeste 21 Oeste 0 -- -- 74
2019-08-13 13:00:00 23.1 19 Oeste 25 Oeste 0 -- -- 80
2019-08-13 12:00:00 23.7 14 Sudoeste 17 Sudoeste 0 -- -- 78
2019-08-13 11:00:00 23.4 11 Sudoeste 13 Sur 0 -- -- 77
2019-08-13 10:00:00 21.8 3 Sudoeste 6 Sur 0 -- -- 70
2019-08-13 09:00:00 18.1 2 Nordeste 9 Este 0 -- -- 78
2019-08-13 08:00:00 16 5 Norte 10 Norte 0 -- -- 80
2019-08-13 07:00:00 16.5 4 Nordeste 9 Norte 0 -- -- 81
2019-08-13 06:00:00 16 8 Norte 11 Norte 0 -- -- 79
2019-08-13 05:00:00 17.1 6 Norte 9 Norte 0 -- -- 78
2019-08-13 04:00:00 17.5 4 Norte 9 Nordeste 0 -- -- 77
2019-08-13 03:00:00 17.8 8 Norte 10 Norte 0 -- -- 79
2019-08-13 02:00:00 19.5 0 Calma 6 Norte 0 -- -- 74
2019-08-13 01:00:00 20.6 4 Norte 7 Norte 0 -- -- 65
2019-08-13 00:00:00 20.6 0 Calma 14 Nordeste 0 -- -- 70
2019-08-12 23:00:00 21.3 9 Nordeste 18 Norte 0 -- -- 64
2019-08-12 22:00:00 23 11 Nordeste 29 Noroeste 0 -- -- 57
2019-08-12 21:00:00 24.4 19 Noroeste 36 Noroeste 0 -- -- 58
2019-08-12 20:00:00 27.7 26 Noroeste 43 Noroeste 0 -- -- 38
2019-08-12 19:00:00 28.4 32 Noroeste 44 Noroeste 0 -- -- 35
2019-08-12 18:00:00 28.6 31 Noroeste 42 Noroeste 0 -- -- 39
2019-08-12 17:00:00 29.1 31 Noroeste 43 Noroeste 0 -- -- 36
2019-08-12 16:00:00 29.9 26 Noroeste 38 Noroeste 0 -- -- 37
2019-08-12 15:00:00 29.5 27 Noroeste 39 Noroeste 0 -- -- 40
2019-08-12 14:00:00 31 14 Norte 26 Nordeste 0 -- -- 29
2019-08-12 13:00:00 29.4 11 Norte 23 Noroeste 0 -- -- 34
2019-08-12 12:00:00 25.4 10 Norte 20 Noroeste 0 -- -- 43
2019-08-12 11:00:00 24.4 9 Norte 16 Norte 0 -- -- 45
2019-08-12 10:00:00 22.8 8 Norte 14 Norte 0 -- -- 48
2019-08-12 09:00:00 20.5 7 Nordeste 16 Nordeste 0 -- -- 56
2019-08-12 08:00:00 18.3 11 Nordeste 13 Nordeste 0 -- -- 64
2019-08-12 07:00:00 18.9 8 Norte 16 Nordeste 0 -- -- 61
2019-08-12 06:00:00 19.3 10 Norte 18 Norte 0 -- -- 60
2019-08-12 05:00:00 20.3 11 Norte 24 Norte 0 -- -- 57
2019-08-12 04:00:00 20.2 10 Norte 22 Nordeste 0 -- -- 60
2019-08-12 03:00:00 20 6 Nordeste 10 Nordeste 0 -- -- 73
2019-08-12 02:00:00 20.6 5 Nordeste 8 Nordeste 0 -- -- 75
2019-08-12 01:00:00 20.9 6 Sudeste 7 Sudeste 0 -- -- 75
2019-08-12 00:00:00 21.7 3 Norte 27 Noroeste 0 -- -- 70
2019-08-11 23:00:00 22.4 9 Norte 18 Nordeste 0 -- -- 67
2019-08-11 22:00:00 23 6 Nordeste 42 Noroeste 0 -- -- 67
2019-08-11 21:00:00 24.2 17 Noroeste 35 Noroeste 0 -- -- 58
2019-08-11 20:00:00 25.3 23 Noroeste 40 Noroeste 0 -- -- 54
2019-08-11 19:00:00 27.1 22 Noroeste 41 Noroeste 0 -- -- 52
2019-08-11 18:00:00 28.6 27 Noroeste 41 Noroeste 0 -- -- 46
2019-08-11 17:00:00 30.1 23 Noroeste 38 Noroeste 0 -- -- 40
2019-08-11 16:00:00 29.9 24 Noroeste 35 Noroeste 0 -- -- 41
2019-08-11 15:00:00 29.2 22 Noroeste 33 Noroeste 0 -- -- 44
2019-08-11 14:00:00 28.5 17 Noroeste 30 Oeste 0 -- -- 48
2019-08-11 13:00:00 28.3 15 Noroeste 25 Noroeste 0 -- -- 49
2019-08-11 12:00:00 23.7 14 Oeste 17 Oeste 0 -- -- 70
2019-08-11 11:00:00 24.8 8 Sudoeste 15 Norte 0 -- -- 60
2019-08-11 10:00:00 22.9 9 Norte 16 Norte 0 -- -- 60
2019-08-11 09:00:00 20.5 2 Oeste 6 Oeste 0 -- -- 71
2019-08-11 08:00:00 20.2 4 Norte 9 Oeste 0 -- -- 72
2019-08-11 07:00:00 20 7 Oeste 11 Sudeste 0 -- -- 82
2019-08-11 06:00:00 19.9 5 Este 13 Este 0 -- -- 82
2019-08-11 05:00:00 20.6 4 Nordeste 9 Norte 0 -- -- 87
2019-08-11 04:00:00 20.6 5 Nordeste 11 Nordeste 0 -- -- 88
2019-08-11 03:00:00 21.1 2 Sur 10 Este 0 -- -- 88
2019-08-11 02:00:00 21.6 6 Nordeste 15 Noroeste 0 -- -- 85
2019-08-11 01:00:00 21.1 3 Sur 8 Sur 0 -- -- 89
2019-08-11 00:00:00 21.7 3 Sudoeste 7 Oeste 0 -- -- 83
2019-08-10 23:00:00 22.7 3 Noroeste 9 Oeste 0 -- -- 76
2019-08-10 22:00:00 23.3 5 Sudoeste 32 Noroeste 0 -- -- 76
2019-08-10 21:00:00 25.1 18 Noroeste 28 Noroeste 0 -- -- 66
2019-08-10 20:00:00 28.2 13 Noroeste 32 Noroeste 0 -- -- 55
2019-08-10 19:00:00 28.4 21 Oeste 30 Oeste 0 -- -- 59
2019-08-10 18:00:00 28.5 18 Oeste 30 Oeste 0 -- -- 61
2019-08-10 17:00:00 26.7 20 Oeste 36 Oeste 0 -- -- 72
2019-08-10 16:00:00 24.6 31 Oeste 38 Oeste 0 -- -- 83
2019-08-10 15:00:00 24.6 26 Sudoeste 38 Sudoeste 0 -- -- 83
2019-08-10 14:00:00 24.1 27 Sudoeste 33 Sudoeste 0 -- -- 85
2019-08-10 13:00:00 24.6 17 Sudoeste 23 Sur 0 -- -- 83
2019-08-10 12:00:00 23.8 18 Sudoeste 19 Sur 0 -- -- 88
2019-08-10 11:00:00 22.6 11 Sudoeste 15 Oeste 0 -- -- 93
2019-08-10 10:00:00 23.1 8 Oeste 12 Oeste 0 -- -- 91
2019-08-10 09:00:00 21.6 3 Norte 10 Norte 0 -- -- 100
2019-08-10 08:00:00 20.3 0 Calma 8 Sur 0 -- -- 100
2019-08-10 07:00:00 21.2 0 Calma 9 Oeste 0 -- -- 100
2019-08-10 06:00:00 21.3 5 Oeste 15 Sur 0 -- -- 100
2019-08-10 05:00:00 21.6 7 Sudoeste 17 Sur 0 -- -- 100
2019-08-10 04:00:00 21.3 3 Oeste 14 Sur 0 -- -- 99
2019-08-10 03:00:00 21.4 5 Sudoeste 10 Sudoeste 0 -- -- 99
2019-08-10 02:00:00 21.5 9 Sudoeste 13 Sur 0 -- -- 98
2019-08-10 01:00:00 21.7 6 Sudoeste 14 Oeste 0 -- -- 96
2019-08-10 00:00:00 22.6 10 Oeste 13 Sudoeste 0 -- -- 93
2019-08-09 23:00:00 22.9 0 Calma 13 Noroeste 0 -- -- 92
2019-08-09 22:00:00 23.4 4 Oeste 22 Noroeste 0 -- -- 91
2019-08-09 21:00:00 24.3 10 Noroeste 31 Noroeste 0 -- -- 87
2019-08-09 20:00:00 25.6 25 Noroeste 34 Oeste 0 -- -- 81
2019-08-09 19:00:00 26.7 19 Noroeste 31 Noroeste 0 -- -- 77
2019-08-09 18:00:00 25.7 18 Oeste 34 Oeste 0 -- -- 83
2019-08-09 17:00:00 24.4 28 Oeste 36 Oeste 0 -- -- 88
2019-08-09 16:00:00 24.2 26 Oeste 36 Oeste 0 -- -- 87
2019-08-09 15:00:00 23.8 30 Oeste 36 Oeste 0 -- -- 87
2019-08-09 14:00:00 25.4 24 Oeste 33 Noroeste 0 -- -- 79
2019-08-09 13:00:00 25.9 19 Noroeste 31 Noroeste 0 -- -- 79
2019-08-09 12:00:00 23 25 Oeste 28 Oeste 0 -- -- 88
2019-08-09 11:00:00 24.8 5 Norte 12 Oeste 0 -- -- 82
2019-08-09 10:00:00 22.7 5 Noroeste 15 Noroeste 0 -- -- 91
2019-08-09 09:00:00 21.5 6 Oeste 12 Oeste 0 -- -- 97
2019-08-09 08:00:00 21 10 Oeste 14 Oeste 0 -- -- 98
2019-08-09 07:00:00 21.3 4 Sudoeste 9 Sudoeste 0 -- -- 98
2019-08-09 06:00:00 21.2 5 Sur 9 Sur 0 -- -- 99
2019-08-09 05:00:00 21.1 4 Sudoeste 8 Oeste 0 -- -- 98
2019-08-09 04:00:00 20.9 5 Sudoeste 13 Oeste 0 -- -- 97
2019-08-09 03:00:00 21 6 Sudoeste 8 Sudoeste 0 -- -- 94
2019-08-09 02:00:00 21.7 0 Calma 7 Nordeste 0 -- -- 90
2019-08-09 01:00:00 22 2 Nordeste 10 Nordeste 0 -- -- 87
2019-08-09 00:00:00 22.6 6 Nordeste 9 Nordeste 0 -- -- 80
2019-08-08 23:00:00 24.1 6 Norte 16 Noroeste 0 -- -- 72
2019-08-08 22:00:00 25.2 10 Noroeste 16 Noroeste 0 -- -- 66
2019-08-08 21:00:00 27.4 8 Norte 23 Noroeste 0 -- -- 61
2019-08-08 20:00:00 29.6 14 Noroeste 29 Noroeste 0 -- -- 53
2019-08-08 19:00:00 31.4 16 Noroeste 26 Noroeste 0 -- -- 47
2019-08-08 18:00:00 32.1 18 Noroeste 31 Noroeste 0 -- -- 48
2019-08-08 17:00:00 30.6 18 Noroeste 28 Oeste 0 -- -- 56
2019-08-08 16:00:00 26.4 22 Oeste 34 Oeste 0 -- -- 77
2019-08-08 15:00:00 24.9 28 Oeste 33 Oeste 0 -- -- 86
2019-08-08 14:00:00 25.6 15 Sudoeste 17 Sudoeste 0 -- -- 83
2019-08-08 13:00:00 24.9 11 Sur 14 Sur 0 -- -- 88
2019-08-08 12:00:00 23.5 14 Sur 17 Sur 0 -- -- 93
2019-08-08 11:00:00 22.8 9 Sur 12 Sur 0 -- -- 99
2019-08-08 10:00:00 21.5 7 Sudoeste 13 Sudoeste 0 -- -- 100
2019-08-08 09:00:00 20.9 9 Sudoeste 14 Sudoeste 0 -- -- 100
2019-08-08 08:00:00 20.4 13 Sudoeste 15 Sudoeste 0 -- -- 100
2019-08-08 07:00:00 19.6 8 Sur 10 Sur 0 -- -- 100
2019-08-08 06:00:00 19.4 3 Nordeste 8 Norte 0 -- -- 100
2019-08-08 05:00:00 19.6 6 Norte 8 Norte 0 -- -- 99
2019-08-08 04:00:00 20.2 5 Nordeste 6 Norte 0 -- -- 99
2019-08-08 03:00:00 20.6 4 Sudoeste 8 Sur 0 -- -- 99
2019-08-08 02:00:00 20.7 5 Sur 9 Sur 0 -- -- 98
2019-08-08 01:00:00 20.8 6 Sudoeste 10 Sudoeste 0 -- -- 98
2019-08-08 00:00:00 20.8 6 Sudoeste 11 Sudoeste 0 -- -- 96
2019-08-07 23:00:00 21.7 8 Sudoeste 15 Oeste 0 -- -- 91
2019-08-07 22:00:00 24.2 7 Oeste 24 Norte 0 -- -- 75
2019-08-07 21:00:00 25.9 12 Noroeste 26 Noroeste 0 -- -- 64
2019-08-07 20:00:00 28.6 11 Noroeste 26 Noroeste 0 -- -- 53
2019-08-07 19:00:00 31.4 15 Noroeste 27 Noroeste 0 -- -- 45
2019-08-07 18:00:00 31.3 16 Noroeste 32 Noroeste 0 -- -- 46
2019-08-07 17:00:00 31.4 19 Noroeste 30 Noroeste 0 -- -- 50
2019-08-07 16:00:00 25.2 24 Oeste 31 Sudoeste 0 -- -- 85
2019-08-07 15:00:00 25.8 14 Sudoeste 19 Sudoeste 0 -- -- 81
2019-08-07 14:00:00 25.5 16 Sudoeste 19 Sur 0 -- -- 84
2019-08-07 13:00:00 25.2 10 Sudoeste 14 Sudoeste 0 -- -- 85
2019-08-07 12:00:00 24.3 9 Sur 13 Sur 0 -- -- 88
2019-08-07 11:00:00 22.7 11 Sur 14 Sur 0 -- -- 96
2019-08-07 10:00:00 21.1 10 Sur 20 Sur 0 -- -- 99
2019-08-07 09:00:00 20.9 12 Sur 17 Sur 0 -- -- 99
2019-08-07 08:00:00 20.9 14 Sudoeste 18 Sudoeste 0 -- -- 100
2019-08-07 07:00:00 20.9 13 Sudoeste 19 Sudoeste 0 -- -- 100
2019-08-07 06:00:00 21 11 Sudoeste 14 Sudoeste 0 -- -- 100
2019-08-07 05:00:00 21.1 2 Sur 14 Oeste 0 -- -- 100
2019-08-07 04:00:00 21.2 10 Sudoeste 21 Sur 0 -- -- 100
2019-08-07 03:00:00 21 16 Sur 19 Sur 0 -- -- 100
2019-08-07 02:00:00 20.7 7 Sur 8 Sur 0 -- -- 98
2019-08-07 01:00:00 20.7 2 Sur 8 Sudoeste 0 -- -- 97
2019-08-07 00:00:00 20.8 6 Sudoeste 8 Oeste 0 -- -- 96
2019-08-06 23:00:00 20.9 8 Sudoeste 10 Sudoeste 0 -- -- 96
2019-08-06 22:00:00 21.4 8 Oeste 19 Oeste 0 -- -- 95
2019-08-06 21:00:00 24 16 Oeste 27 Oeste 0 -- -- 80
2019-08-06 20:00:00 24.8 17 Oeste 19 Oeste 0 -- -- 80
2019-08-06 19:00:00 27 7 Oeste 28 Oeste 0 -- -- 75
2019-08-06 18:00:00 24.5 23 Oeste 35 Oeste 0 -- -- 87
2019-08-06 17:00:00 24.4 23 Oeste 30 Oeste 0 -- -- 87
2019-08-06 16:00:00 25.9 16 Sudoeste 21 Sudoeste 0 -- -- 81
2019-08-06 15:00:00 25.6 15 Sudoeste 20 Sudoeste 0 -- -- 81
2019-08-06 14:00:00 24.8 16 Sudoeste 19 Sudoeste 0 -- -- 83
2019-08-06 13:00:00 24.6 13 Sudoeste 15 Sudoeste 0 -- -- 81
2019-08-06 12:00:00 23.4 10 Sudoeste 16 Sudoeste 0 -- -- 86
2019-08-06 11:00:00 21.2 8 Oeste 14 Sudoeste 0 -- -- 93
2019-08-06 10:00:00 20.6 12 Sudoeste 16 Sudoeste 0 -- -- 99
2019-08-06 09:00:00 20.1 6 Sudoeste 9 Sudoeste 0 -- -- 100
2019-08-06 08:00:00 19.7 5 Nordeste 8 Nordeste 0 -- -- 100
2019-08-06 07:00:00 19.4 0 Calma 9 Norte 0 -- -- 100
2019-08-06 06:00:00 20.3 2 Este 14 Sur 0 -- -- 100
2019-08-06 05:00:00 20.4 12 Sur 15 Sur 0 -- -- 100
2019-08-06 04:00:00 20 7 Sur 11 Sur 0 -- -- 99
2019-08-06 03:00:00 20.2 3 Sudoeste 8 Sudoeste 0 -- -- 98
2019-08-06 02:00:00 20.6 5 Sudoeste 9 Sudoeste 0 -- -- 98
2019-08-06 01:00:00 20.8 7 Sudoeste 10 Sudoeste 0 -- -- 96
2019-08-06 00:00:00 21.1 10 Sudoeste 15 Sudoeste 0 -- -- 94
2019-08-05 23:00:00 22.3 9 Oeste 13 Noroeste 0 -- -- 84
2019-08-05 22:00:00 24.3 10 Noroeste 13 Oeste 0 -- -- 61
2019-08-05 21:00:00 26.9 8 Oeste 17 Noroeste 0 -- -- 59
2019-08-05 20:00:00 28.6 12 Noroeste 23 Noroeste 0 -- -- 53
2019-08-05 19:00:00 27.8 8 Oeste 24 Sudoeste 0 -- -- 60
2019-08-05 18:00:00 24.1 22 Sudoeste 30 Sudoeste 0 -- -- 83
2019-08-05 17:00:00 24.8 22 Sudoeste 26 Sudoeste 0 -- -- 82
2019-08-05 16:00:00 25.4 19 Sudoeste 23 Sudoeste 0 -- -- 83
2019-08-05 15:00:00 25.3 19 Sudoeste 24 Sudoeste 0 -- -- 84
2019-08-05 14:00:00 25.1 17 Sudoeste 19 Sudoeste 0 -- -- 84
2019-08-05 13:00:00 24.7 15 Sudoeste 19 Sudoeste 0 -- -- 84
2019-08-05 12:00:00 24 15 Sudoeste 18 Sur 0 -- -- 89
2019-08-05 11:00:00 23.2 12 Sur 16 Sur 0 -- -- 92
2019-08-05 10:00:00 22.3 11 Sur 15 Sur 0 -- -- 99
2019-08-05 09:00:00 21 14 Sur 16 Sur 0 -- -- 100
2019-08-05 08:00:00 20.5 9 Sur 12 Sur 0 -- -- 100
2019-08-05 07:00:00 20.7 11 Sur 14 Sur 0 -- -- 100
2019-08-05 06:00:00 20.6 7 Sur 9 Sudoeste 0 -- -- 100
2019-08-05 05:00:00 20.8 8 Sudoeste 12 Sudoeste 0 -- -- 100
2019-08-05 04:00:00 21 10 Sur 13 Sur 0 -- -- 100
2019-08-05 03:00:00 20.4 6 Sudoeste 10 Sudoeste 0 -- -- 99
2019-08-05 02:00:00 20.8 9 Sudoeste 11 Sudoeste 0 -- -- 99
2019-08-05 01:00:00 20.5 0 Calma 4 Sudoeste 0 -- -- 97
2019-08-05 00:00:00 20.7 4 Oeste 11 Oeste 0 -- -- 97
2019-08-04 23:00:00 21 10 Sudoeste 13 Oeste 0 -- -- 96
2019-08-04 22:00:00 21.9 11 Oeste 14 Noroeste 0 -- -- 92
2019-08-04 21:00:00 24.3 10 Oeste 19 Oeste 0 -- -- 78
2019-08-04 20:00:00 23.4 18 Oeste 28 Oeste 0 -- -- 85
2019-08-04 19:00:00 23.3 21 Oeste 27 Oeste 0 -- -- 88
2019-08-04 18:00:00 24.1 19 Oeste 26 Oeste 0 -- -- 86
2019-08-04 17:00:00 24 21 Oeste 30 Oeste 0 -- -- 86
2019-08-04 16:00:00 23.9 25 Sudoeste 32 Sudoeste 0 -- -- 86
2019-08-04 15:00:00 24.1 21 Sudoeste 24 Sudoeste 0 -- -- 85
2019-08-04 14:00:00 24.2 18 Sudoeste 21 Sudoeste 0 -- -- 85
2019-08-04 13:00:00 23.9 18 Sudoeste 21 Sudoeste 0 -- -- 84
2019-08-04 12:00:00 23.3 17 Sudoeste 18 Sudoeste 0 -- -- 86
2019-08-04 11:00:00 22.8 9 Sudoeste 13 Sudoeste 0 -- -- 89
2019-08-04 10:00:00 21.8 9 Oeste 18 Sudoeste 0 -- -- 93
2019-08-04 09:00:00 20.8 13 Sudoeste 16 Sudoeste 0 -- -- 98
2019-08-04 08:00:00 20.8 9 Sur 13 Sur 0 -- -- 99
2019-08-04 07:00:00 20.5 9 Sur 10 Sur 0 -- -- 99
2019-08-04 06:00:00 20.4 9 Sur 10 Sudeste 0 -- -- 97
2019-08-04 05:00:00 20.7 5 Sudeste 6 Sudeste 0 -- -- 97
2019-08-04 04:00:00 21 4 Sudeste 8 Sudoeste 0 -- -- 98
2019-08-04 03:00:00 21.1 7 Sudoeste 10 Sudoeste 0 -- -- 97
2019-08-04 02:00:00 21 6 Sudoeste 15 Sudoeste 0 -- -- 96
2019-08-04 01:00:00 21.9 10 Oeste 13 Oeste 0 -- -- 91
2019-08-04 00:00:00 22.1 2 Oeste 12 Oeste 0 -- -- 88
2019-08-03 23:00:00 22.9 4 Oeste 10 Noroeste 0 -- -- 89
2019-08-03 22:00:00 22.6 10 Oeste 14 Oeste 0 -- -- 92
2019-08-03 21:00:00 23.8 10 Sudoeste 18 Oeste 0 -- -- 87
2019-08-03 20:00:00 23.7 16 Oeste 23 Oeste 0 -- -- 88
2019-08-03 19:00:00 23.8 21 Oeste 26 Oeste 0 -- -- 88
2019-08-03 18:00:00 25.2 17 Sudoeste 23 Sudoeste 0 -- -- 83
2019-08-03 17:00:00 24.3 21 Sudoeste 26 Sudoeste 0 -- -- 85
2019-08-03 16:00:00 24.1 22 Oeste 25 Oeste 0 -- -- 85
2019-08-03 15:00:00 24.1 20 Oeste 24 Oeste 0 -- -- 85
2019-08-03 14:00:00 24.3 19 Sudoeste 23 Sudoeste 0 -- -- 84
2019-08-03 13:00:00 24.5 15 Sudoeste 19 Sudoeste 0 -- -- 83
2019-08-03 12:00:00 23.3 16 Sudoeste 22 Sudoeste 0 -- -- 86
2019-08-03 11:00:00 22.6 18 Sudoeste 21 Sudoeste 0 -- -- 91
2019-08-03 10:00:00 21.6 12 Sur 20 Sur 0 -- -- 95
2019-08-03 09:00:00 20.7 15 Sudoeste 18 Sudoeste 0 -- -- 96
2019-08-03 08:00:00 20.9 10 Sur 14 Sur 0 -- -- 97
2019-08-03 07:00:00 19.9 5 Sur 9 Sur 0 -- -- 95
2019-08-03 06:00:00 19.2 3 Norte 8 Sudeste 0 -- -- 92
2019-08-03 05:00:00 20.4 7 Sur 9 Sudeste 0 -- -- 97
2019-08-03 04:00:00 20.8 6 Sur 13 Sur 0 -- -- 96
2019-08-03 03:00:00 21 10 Sur 13 Sur 0 -- -- 94
2019-08-03 02:00:00 21 6 Oeste 11 Sudoeste 0 -- -- 92
2019-08-03 01:00:00 21.6 9 Oeste 17 Oeste 0 -- -- 91
2019-08-03 00:00:00 22.3 10 Oeste 12 Oeste 0 -- -- 70
2019-08-02 23:00:00 24.3 3 Noroeste 6 Noroeste 0 -- -- 62
2019-08-02 22:00:00 25.7 6 Norte 10 Noroeste 0 -- -- 54
2019-08-02 21:00:00 28.5 4 Noroeste 14 Noroeste 0 -- -- 47
2019-08-02 20:00:00 29.7 10 Noroeste 21 Noroeste 0 -- -- 48
2019-08-02 19:00:00 30.2 14 Noroeste 21 Noroeste 0 -- -- 46
2019-08-02 18:00:00 25.3 19 Sudoeste 24 Sudoeste 0 -- -- 77
2019-08-02 17:00:00 24.7 19 Oeste 25 Sudoeste 0 -- -- 78
2019-08-02 16:00:00 25 20 Sudoeste 26 Sudoeste 0 -- -- 80
2019-08-02 15:00:00 25.9 16 Sudoeste 20 Sudoeste 0 -- -- 80
2019-08-02 14:00:00 25.4 17 Sudoeste 24 Sudoeste 0 -- -- 85
2019-08-02 13:00:00 24.5 21 Sur 24 Sur 0 -- -- 89
2019-08-02 12:00:00 24.2 19 Sur 22 Sur 0 -- -- 92
2019-08-02 11:00:00 23.1 13 Sur 17 Sur 0 -- -- 96
2019-08-02 10:00:00 22.7 14 Sudeste 15 Sudeste 0 -- -- 97
2019-08-02 09:00:00 22 5 Sur 8 Sur 0 -- -- 99
2019-08-02 08:00:00 21.2 4 Sudoeste 11 Sur 0 -- -- 99
2019-08-02 07:00:00 21.2 8 Sudoeste 10 Sudoeste 0 -- -- 98
2019-08-02 06:00:00 21.3 8 Sudoeste 12 Sur 0 -- -- 97
2019-08-02 05:00:00 21.5 10 Sur 12 Sur 0 -- -- 96
2019-08-02 04:00:00 21.6 7 Sudoeste 10 Oeste 0 -- -- 90
2019-08-02 03:00:00 22.2 0 Calma -- -- 0 -- -- 89
2019-08-02 02:00:00 22.9 0 Calma 5 Norte 0 -- -- 87
2019-08-02 01:00:00 23.4 4 Nordeste 10 Nordeste 0 -- -- 84
2019-08-02 00:00:00 24 3 Norte 10 Noroeste 0 -- -- 84
2019-08-01 23:00:00 24.8 3 Norte 17 Noroeste 0 -- -- 81
2019-08-01 22:00:00 25.6 6 Noroeste 20 Norte 0 -- -- 79
2019-08-01 21:00:00 27.6 9 Noroeste 19 Oeste 0 -- -- 70
2019-08-01 20:00:00 27.6 13 Oeste 20 Oeste 0 -- -- 75
2019-08-01 19:00:00 27.3 16 Oeste 25 Oeste 0 -- -- 75
2019-08-01 18:00:00 26.1 24 Oeste 30 Oeste 0 -- -- 80
2019-08-01 17:00:00 27.8 19 Sur 36 Sur 0 -- -- 73
2019-08-01 16:00:00 26.7 28 Sur 38 Sur 0 -- -- 75
2019-08-01 15:00:00 26.9 25 Sur 34 Sur 0 -- -- 75
2019-08-01 14:00:00 27.4 20 Sudeste 33 Sudeste 0 -- -- 73
2019-08-01 13:00:00 28.3 15 Sudeste 32 Sur 0 -- -- 71
2019-08-01 12:00:00 28.4 14 Sur 29 Este 0 -- -- 73
2019-08-01 11:00:00 28.6 20 Este 36 Este 0 -- -- 71
2019-08-01 10:00:00 27.2 20 Este 32 Este 0 -- -- 76
2019-08-01 09:00:00 25.6 7 Norte 18 Nordeste 0 -- -- 82
2019-08-01 08:00:00 24.4 6 Norte 17 Norte 0 -- -- 86
2019-08-01 07:00:00 24.2 7 Norte 14 Nordeste 0 -- -- 86
2019-08-01 06:00:00 24.3 4 Noroeste 31 Este 0 -- -- 86
2019-08-01 05:00:00 24.6 18 Este 31 Este 0 -- -- 85
2019-08-01 04:00:00 24.6 19 Este 33 Sudeste 0 -- -- 85
2019-08-01 03:00:00 24.9 15 Este 27 Nordeste 0 -- -- 84
2019-08-01 02:00:00 24.9 15 Este 28 Este 0 -- -- 83
2019-08-01 01:00:00 25.3 18 Este 37 Este 0 -- -- 82
2019-08-01 00:00:00 25.5 22 Este 41 Este 0 -- -- 81
2019-07-31 23:00:00 25.8 9 Norte 24 Este 0 -- -- 80
2019-07-31 22:00:00 26.3 4 Sudeste 28 Sudeste 0 -- -- 77
2019-07-31 21:00:00 27.9 9 Sudeste 33 Este 0 -- -- 72
2019-07-31 20:00:00 29.5 21 Este 40 Este 0 -- -- 66
2019-07-31 19:00:00 30.2 22 Sudeste 47 Este 0 -- -- 63
2019-07-31 18:00:00 30.6 24 Este 51 Este 0 -- -- 62
2019-07-31 17:00:00 30.9 33 Este 53 Este 0 -- -- 59
2019-07-31 16:00:00 30.9 27 Este 49 Este 0 -- -- 60
2019-07-31 15:00:00 30.5 31 Este 51 Sudeste 0 -- -- 62
2019-07-31 14:00:00 30.6 26 Sudeste 45 Sudeste 0 -- -- 61
2019-07-31 13:00:00 29.7 28 Sudeste 46 Sudeste 0 -- -- 63
2019-07-31 12:00:00 28.8 28 Sudeste 41 Sudeste 0 -- -- 66
2019-07-31 11:00:00 27.4 23 Sudeste 41 Este 0 -- -- 70
2019-07-31 10:00:00 26.8 28 Este 42 Este 0 -- -- 71
2019-07-31 09:00:00 25.9 9 Este 28 Este 0 -- -- 66
2019-07-31 08:00:00 23.2 10 Nordeste 19 Nordeste 0 -- -- 81
2019-07-31 07:00:00 23.4 14 Nordeste 21 Nordeste 0 -- -- 81
2019-07-31 06:00:00 23.8 14 Este 22 Nordeste 0 -- -- 75
2019-07-31 05:00:00 24.7 8 Norte 25 Este 0 -- -- 70
2019-07-31 04:00:00 24.5 14 Nordeste 28 Este 0 -- -- 68
2019-07-31 03:00:00 22 8 Noroeste 20 Sur 0 -- -- 78
2019-07-31 02:00:00 22.5 9 Sur 14 Sudeste 0 -- -- 77
2019-07-31 01:00:00 22.9 6 Norte 14 Este 0 -- -- 64
2019-07-31 00:00:00 22.8 5 Norte 13 Sur 0 -- -- 71
2019-07-30 23:00:00 24.3 6 Sur 13 Sur 0 -- -- 72
2019-07-30 22:00:00 27.9 2 Sudoeste 17 Norte 0 -- -- 45
2019-07-30 21:00:00 30.5 13 Norte 27 Noroeste 0 -- -- 32
2019-07-30 20:00:00 32.3 18 Noroeste 36 Noroeste 0 -- -- 31
2019-07-30 19:00:00 33.3 24 Noroeste 33 Noroeste 0 -- -- 33
2019-07-30 18:00:00 33.4 20 Noroeste 30 Noroeste 0 -- -- 37
2019-07-30 17:00:00 32.5 14 Noroeste 30 Oeste 0 -- -- 41
2019-07-30 16:00:00 27.1 20 Oeste 28 Oeste 0 -- -- 63
2019-07-30 15:00:00 24.8 24 Oeste 32 Oeste 0 -- -- 72
2019-07-30 14:00:00 24.7 21 Sudoeste 25 Sudoeste 0 -- -- 67
2019-07-30 13:00:00 23.9 18 Oeste 21 Oeste 0 -- -- 71
2019-07-30 12:00:00 23.5 13 Oeste 15 Oeste 0 -- -- 69
2019-07-30 11:00:00 23.4 7 Sudoeste 9 Sudoeste 0 -- -- 67
2019-07-30 10:00:00 22.1 7 Sudoeste 8 Sur 0 -- -- 71
2019-07-30 09:00:00 20.1 4 Oeste 7 Oeste 0 -- -- 75
2019-07-30 08:00:00 18.3 0 Calma 8 Este 0 -- -- 78
2019-07-30 07:00:00 17.7 3 Nordeste 10 Norte 0 -- -- 90
2019-07-30 06:00:00 19.1 4 Norte 7 Norte 0 -- -- 92
2019-07-30 05:00:00 18.6 0 Calma 8 Norte 0 -- -- 94
2019-07-30 04:00:00 19.7 5 Nordeste 7 Norte 0 -- -- 93
2019-07-30 03:00:00 20.8 4 Sudoeste 12 Oeste 0 -- -- 95
2019-07-30 02:00:00 21.1 10 Oeste 12 Oeste 0 -- -- 93
2019-07-30 01:00:00 21.8 6 Oeste 7 Oeste 0 -- -- 86
2019-07-30 00:00:00 22.6 5 Este 9 Este 0 -- -- 81
2019-07-29 23:00:00 23.5 6 Nordeste 16 Norte 0 -- -- 79
2019-07-29 22:00:00 24.3 4 Norte 25 Noroeste 0 -- -- 74
2019-07-29 21:00:00 26 12 Noroeste 22 Noroeste 0 -- -- 71
2019-07-29 20:00:00 27.5 16 Noroeste 27 Noroeste 0 -- -- 65
2019-07-29 19:00:00 28.7 13 Noroeste 24 Oeste 0 -- -- 60
2019-07-29 18:00:00 24.7 21 Oeste 28 Oeste 0 -- -- 83
2019-07-29 17:00:00 24.2 22 Oeste 31 Oeste 0 -- -- 80
2019-07-29 16:00:00 23.6 25 Oeste 28 Oeste 0 -- -- 79
2019-07-29 15:00:00 24.4 21 Sudoeste 25 Sudoeste 0 -- -- 77
2019-07-29 14:00:00 24.7 15 Sudoeste 18 Sudoeste 0 -- -- 78
2019-07-29 13:00:00 25.3 13 Sudoeste 16 Sudoeste 0 -- -- 79
2019-07-29 12:00:00 24.2 15 Sudoeste 20 Sudoeste 0 -- -- 85
2019-07-29 11:00:00 22.7 14 Sudoeste 18 Sudoeste 0 -- -- 90
2019-07-29 10:00:00 21.9 13 Sudoeste 20 Sudoeste 0 -- -- 94
2019-07-29 09:00:00 21.3 15 Sudoeste 19 Sudoeste 0 -- -- 96
2019-07-29 08:00:00 19.8 4 Sur 7 Sur 0 -- -- 97
2019-07-29 07:00:00 20.2 5 Sudoeste 10 Sudoeste 0 -- -- 99
2019-07-29 06:00:00 18.9 0 Calma 9 Sudoeste 0 -- -- 96
2019-07-29 05:00:00 20.4 8 Sudoeste 15 Sudoeste 0 -- -- 97
2019-07-29 04:00:00 20.3 12 Sudoeste 15 Sur 0 -- -- 97
2019-07-29 03:00:00 20.2 8 Sudoeste 11 Sudoeste 0 -- -- 98
2019-07-29 02:00:00 19.9 0 Calma 8 Oeste 0 -- -- 96
2019-07-29 01:00:00 20.4 7 Oeste 12 Oeste 0 -- -- 96
2019-07-29 00:00:00 20.2 4 Oeste 9 Oeste 0 -- -- 92
2019-07-28 23:00:00 20.8 7 Oeste 13 Oeste 0 -- -- 90
2019-07-28 22:00:00 21.3 10 Oeste 17 Oeste 0 -- -- 87
2019-07-28 21:00:00 22.6 14 Oeste 25 Oeste 0 -- -- 84
2019-07-28 20:00:00 23.1 22 Oeste 29 Oeste 0 -- -- 83
2019-07-28 19:00:00 23.4 23 Oeste 29 Oeste 0 -- -- 82
2019-07-28 18:00:00 23.4 25 Oeste 30 Oeste 0 -- -- 82
2019-07-28 17:00:00 23.4 25 Oeste 31 Oeste 0 -- -- 81
2019-07-28 16:00:00 23.4 26 Oeste 31 Oeste 0 -- -- 80
2019-07-28 15:00:00 23.2 24 Oeste 29 Oeste 0 -- -- 80
2019-07-28 14:00:00 23 24 Oeste 28 Oeste 0 -- -- 81
2019-07-28 13:00:00 22.7 21 Oeste 29 Oeste 0 -- -- 82
2019-07-28 12:00:00 22.5 24 Oeste 29 Oeste 0 -- -- 85
2019-07-28 11:00:00 22.7 19 Oeste 26 Oeste 0 -- -- 82
2019-07-28 10:00:00 22.8 8 Noroeste 14 Noroeste 0 -- -- 77
2019-07-28 09:00:00 21.4 8 Noroeste 21 Norte 0 -- -- 85
2019-07-28 08:00:00 20.9 8 Norte 21 Noroeste 0 -- -- 88
2019-07-28 07:00:00 21.1 11 Noroeste 17 Noroeste 0 -- -- 86
2019-07-28 06:00:00 21.2 5 Noroeste 18 Noroeste 0 -- -- 87
2019-07-28 05:00:00 21.3 9 Noroeste 18 Noroeste 0 -- -- 88
2019-07-28 04:00:00 21.2 6 Noroeste 15 Oeste 0 -- -- 92
2019-07-28 03:00:00 21.2 9 Oeste 17 Oeste 0 -- -- 91
2019-07-28 02:00:00 20.9 10 Oeste 17 Oeste 0 -- -- 98
2019-07-28 01:00:00 21 10 Oeste 21 Oeste 0 -- -- 99
2019-07-28 00:00:00 21.1 16 Oeste 20 Oeste 0 -- -- 98
2019-07-27 23:00:00 21.3 10 Sudoeste 17 Oeste 0 -- -- 97
2019-07-26 12:00:00 -- -- -- -- -- -- -- -- --
2019-07-26 11:00:00 23.2 21 Oeste 25 Oeste 0 -- -- 89
2019-07-26 10:00:00 22.3 17 Oeste 21 Oeste 0 -- -- 94
2019-07-26 09:00:00 22.1 12 Oeste 23 Sudoeste 0 -- -- 96
2019-07-26 08:00:00 22.2 20 Sudoeste 31 Sudoeste 0 -- -- 97
2019-07-26 07:00:00 22 21 Sudoeste 27 Sudoeste 0 -- -- 96
2019-07-26 06:00:00 21.9 19 Sudoeste 23 Sudoeste 0 -- -- 95
2019-07-26 05:00:00 22 17 Sudoeste 19 Sudoeste 0 -- -- 96
2019-07-26 04:00:00 22 17 Sudoeste 21 Sudoeste 0 -- -- 97
2019-07-26 03:00:00 22 15 Sudoeste 20 Sudoeste 0 -- -- 98
2019-07-26 02:00:00 22.3 17 Sudoeste 23 Sudoeste 0 -- -- 98
2019-07-26 01:00:00 22.5 17 Sur 21 Sur 0 -- -- 98
2019-07-26 00:00:00 22.4 14 Sudoeste 17 Sudoeste 0 -- -- 98
2019-07-25 23:00:00 22.5 12 Sur 17 Oeste 0 -- -- 97
2019-07-25 22:00:00 22.9 14 Oeste 18 Oeste 0 -- -- 95
2019-07-25 21:00:00 23.9 11 Oeste 27 Oeste 0 -- -- 89
2019-07-25 20:00:00 24 27 Oeste 35 Oeste 0 -- -- 89
2019-07-25 19:00:00 25.2 22 Sudoeste 27 Oeste 0 -- -- 84
2019-07-25 18:00:00 25.7 21 Sudoeste 26 Sudoeste 0 -- -- 83
2019-07-25 17:00:00 26.3 18 Sudoeste 24 Sudoeste 0 -- -- 83
2019-07-25 16:00:00 26.1 19 Sudoeste 22 Sudoeste 0 -- -- 83
2019-07-25 15:00:00 25.4 15 Sudoeste 23 Sudoeste 0 -- -- 84
2019-07-25 14:00:00 25.5 19 Sudoeste 23 Sudoeste 0 -- -- 86
2019-07-25 13:00:00 24.3 19 Sudoeste 22 Sudoeste 0 -- -- 89
2019-07-25 12:00:00 24.1 17 Oeste 21 Oeste 0 -- -- 91
2019-07-25 11:00:00 25.7 5 Sudoeste 10 Sudoeste 0 -- -- 87
2019-07-25 10:00:00 23.1 4 Oeste 6 Oeste 0 -- -- 97
2019-07-25 09:00:00 22 2 Oeste 5 Oeste 0 -- -- 100
2019-07-25 08:00:00 21.9 0 Calma 8 Sudeste 0 -- -- 100
2019-07-25 07:00:00 21.7 4 Sudoeste 12 Oeste 0 -- -- 100
2019-07-25 06:00:00 21.6 9 Sudoeste 15 Sudoeste 0 -- -- 100
2019-07-25 05:00:00 22.4 14 Sudoeste 18 Sur 0 -- -- 97
2019-07-25 04:00:00 22.7 10 Sur 14 Sur 0 -- -- 96
2019-07-25 03:00:00 22.8 10 Oeste 25 Oeste 0 -- -- 95
2019-07-25 02:00:00 22.8 10 Sudoeste 13 Sudoeste 0 -- -- 93
2019-07-25 01:00:00 23.8 4 Sur 9 Sur 0 -- -- 88
2019-07-25 00:00:00 24.7 5 Nordeste 12 Nordeste 0 -- -- 78
2019-07-24 23:00:00 24.8 7 Norte 10 Noroeste 0 -- -- 79
2019-07-24 22:00:00 24.9 8 Oeste 9 Sur 0 -- -- 85
2019-07-24 21:00:00 26.7 9 Oeste 23 Oeste 0 -- -- 79
2019-07-24 20:00:00 26.8 18 Oeste 27 Oeste 0 -- -- 75
2019-07-24 19:00:00 28.6 16 Oeste 21 Oeste 0 -- -- 68
2019-07-24 18:00:00 28.3 15 Oeste 25 Oeste 0 -- -- 69
2019-07-24 17:00:00 26.9 20 Oeste 25 Oeste 0 -- -- 77
2019-07-24 16:00:00 26.5 19 Oeste 23 Oeste 0 -- -- 81
2019-07-24 15:00:00 26.1 17 Oeste 22 Oeste 0 -- -- 84
2019-07-24 14:00:00 25.2 17 Oeste 30 Oeste 0 -- -- 87
2019-07-24 13:00:00 25.1 19 Oeste 23 Sudoeste 0 -- -- 88
2019-07-24 12:00:00 24.2 18 Oeste 23 Oeste 0 -- -- 91
2019-07-24 11:00:00 24.3 15 Oeste 22 Sudoeste 0 -- -- 89
2019-07-24 10:00:00 24.8 12 Sur 15 Sur 0 -- -- 88
2019-07-24 09:00:00 23.7 4 Este 7 Este 0 -- -- 93
2019-07-24 08:00:00 21.7 4 Norte 7 Norte 0 -- -- 96
2019-07-24 07:00:00 21.9 4 Norte 9 Norte 0 -- -- 96
2019-07-24 06:00:00 21.8 5 Norte 10 Norte 0 -- -- 96
2019-07-24 05:00:00 21.5 6 Nordeste 8 Norte 0 -- -- 94
2019-07-24 04:00:00 22.1 4 Norte 11 Nordeste 0 -- -- 95
2019-07-24 03:00:00 22.6 5 Oeste 14 Oeste 0 -- -- 97
2019-07-24 02:00:00 22.6 12 Oeste 15 Oeste 0 -- -- 97
2019-07-24 01:00:00 22.6 10 Oeste 18 Oeste 0 -- -- 97
2019-07-24 00:00:00 22.9 12 Sudoeste 17 Sudoeste 0 -- -- 93
2019-07-23 23:00:00 24.3 8 Oeste 22 Sudoeste 0 -- -- 85
2019-07-23 22:00:00 25.7 13 Oeste 24 Este 0 -- -- 81
2019-07-23 21:00:00 26.6 10 Oeste 18 Sudoeste 0 -- -- 77
2019-07-23 20:00:00 28.5 6 Sudoeste 29 Sur 0 -- -- 72
2019-07-23 19:00:00 27.3 22 Sur 30 Sur 0 -- -- 77
2019-07-23 18:00:00 27.7 22 Sur 34 Sur 0 -- -- 76
2019-07-23 17:00:00 27.9 25 Sur 43 Sur 0 -- -- 76
2019-07-23 16:00:00 28.2 30 Sur 40 Sudeste 0 -- -- 75
2019-07-23 15:00:00 29.2 26 Sudeste 42 Sudeste 0 -- -- 71
2019-07-23 14:00:00 28.4 26 Sur 37 Sur 0 -- -- 73
2019-07-23 13:00:00 28.3 23 Sur 31 Sur 0 -- -- 74
2019-07-23 12:00:00 27.9 9 Sudoeste 20 Oeste 0 -- -- 76
2019-07-23 11:00:00 26.1 16 Sudoeste 21 Sudoeste 0 -- -- 81
2019-07-23 10:00:00 26.4 11 Oeste 26 Sudeste 0 -- -- 79
2019-07-23 09:00:00 26.6 15 Sudeste 30 Sudeste 0 -- -- 79
2019-07-23 08:00:00 24.4 5 Sudeste 12 Sur 0 -- -- 88
2019-07-23 07:00:00 23.7 5 Oeste 10 Sur 0 -- -- 90
2019-07-23 06:00:00 24.4 4 Sudeste 12 Este 0 -- -- 87
2019-07-23 05:00:00 24.9 5 Sudeste 18 Sudeste 0 -- -- 85
2019-07-23 04:00:00 25.1 9 Sudeste 18 Sudeste 0 -- -- 84
2019-07-23 03:00:00 25.9 13 Sudeste 40 Este 0 -- -- 80
2019-07-23 02:00:00 25.8 21 Sudeste 39 Este 0 -- -- 81
2019-07-23 01:00:00 26 23 Este 41 Este 0 -- -- 79
2019-07-23 00:00:00 26 21 Este 51 Este 0 -- -- 80
2019-07-22 23:00:00 26 28 Este 45 Este 0 -- -- 80
2019-07-22 22:00:00 26.5 25 Este 43 Este 0 -- -- 76
2019-07-22 21:00:00 28.5 20 Este 38 Sudeste 0 -- -- 68
2019-07-22 20:00:00 30.6 19 Este 50 Este 0 -- -- 58
2019-07-22 19:00:00 31 24 Este 52 Este 0 -- -- 58
2019-07-22 18:00:00 32 26 Este 51 Este 0 -- -- 55
2019-07-22 17:00:00 32 23 Este 48 Sudeste 0 -- -- 57
2019-07-22 16:00:00 32.2 22 Este 44 Este 0 -- -- 59
2019-07-22 15:00:00 32.4 23 Sudeste 42 Este 0 -- -- 58
2019-07-22 14:00:00 31.3 31 Este 61 Sudeste 0 -- -- 58
2019-07-22 13:00:00 31.1 32 Sudeste 60 Sudeste 0 -- -- 63
2019-07-22 12:00:00 30 32 Sudeste 58 Sudeste 0 -- -- 67
2019-07-22 11:00:00 29.2 34 Sudeste 58 Sudeste 0 -- -- 70
2019-07-22 10:00:00 28.1 30 Sudeste 60 Sudeste 0 -- -- 73
2019-07-22 09:00:00 27 19 Sudeste 47 Sudeste 0 -- -- 77
2019-07-22 08:00:00 26 7 Sudeste 34 Sudeste 0 -- -- 80
2019-07-22 07:00:00 26 25 Sudeste 42 Sudeste 0 -- -- 79
2019-07-22 06:00:00 25.9 11 Noroeste 30 Este 0 -- -- 81
2019-07-22 05:00:00 25.8 22 Este 36 Este 0 -- -- 82
2019-07-22 04:00:00 25.9 23 Este 36 Este 0 -- -- 83
2019-07-22 03:00:00 26.1 23 Este 38 Este 0 -- -- 82
2019-07-22 02:00:00 26.4 16 Este 33 Este 0 -- -- 81
2019-07-22 01:00:00 26.2 26 Este 36 Este 0 -- -- 81
2019-07-22 00:00:00 26.3 15 Este 41 Sudeste 0 -- -- 79